Aviation Digital Data Service (ADDS)

Output produced by METARs form (0603 UTC 31 August 2016)
found at http://www.aviationweather.gov/adds/metars/
 
KDOV 310558Z AUTO 18003KT 7SM R01/5500FT CLR 22/22 A3002 RMK AO2 SLP169 T02160216 10250 20209 58004 $
TAF KDOV 310000Z 3100/0106 10009KT 9999 SCT020 QNH3001INS 
     BECMG 3105/3106 16006KT 6000 BR FEW030 QNH3000INS 
     BECMG 3108/3109 16006KT 3200 BR SKC QNH2999INS 
     BECMG 3110/3111 17009KT 9999 NSW SCT007 BKN015 QNH2997INS 
     BECMG 3113/3114 18009KT 9999 FEW035 QNH2988INS 
     BECMG 0103/0104 18009KT 9999 FEW010 BKN020 OVC048 QNH2984INS TX31/3120Z TN20/3110Z